Temple, North Dakota
Current Conditions -  °F | °C
As of 12:55 AM on Monday 24 Nov 2014 (Local Time) from KD60 Reporting Station
Clear Clear  
Wind Chill: -8°   Ceiling: Unl
Heat Index:   Visibility: 10mi
Dew Point:   Wind: 10mph
Humidity: 100%   Direction: 310°NW
Pressure: 29.81"   Gusts: NA
Location:  48.3991°N, 103.074°W
Report Text: KD60 240655Z AUTO 31009KT 10SM CLR M14/M14 A2981 RMK AO2
Loading
Personal Weather Stations






























Interactive Weather Map New forecast layout! Learn more

10-Day Weather Forecast

Advertisements
Track Severe Weather on mobile